Time;durP1;ratioP1;P1;durP2;ratioP2;P2;SDS_P1;SDS_P2;PMS_P1;PMS_P2;Temp;Humidity;BMP_temperature;BMP_pressure;BME280_temperature;BME280_humidity;BME280_pressure;Samples;Min_cycle;Max_cycle;Signal;HPM_P1;HPM_P2
2021/10/07 04:01:37;;;;;;;44.83;5.93;;;10.30;99.70;;;;;;5069219;28;20203;-65
2021/10/07 04:04:03;;;;;;;47.87;6.30;;;10.30;99.70;;;;;;5068394;28;20311;-65
2021/10/07 04:06:30;;;;;;;46.40;6.03;;;10.30;99.70;;;;;;5068377;28;20450;-65
2021/10/07 04:08:57;;;;;;;44.80;5.90;;;10.30;99.70;;;;;;5068629;28;20475;-65
2021/10/07 04:11:24;;;;;;;48.30;6.20;;;10.30;99.70;;;;;;5068703;28;20454;-65
2021/10/07 04:13:50;;;;;;;44.87;6.10;;;10.30;99.70;;;;;;5068278;28;20839;-65
2021/10/07 04:16:17;;;;;;;47.67;7.10;;;10.40;99.70;;;;;;5068116;28;20447;-65
2021/10/07 04:18:45;;;;;;;47.97;6.70;;;10.30;99.70;;;;;;5070536;28;20434;-65
2021/10/07 04:21:12;;;;;;;48.07;6.77;;;10.30;99.70;;;;;;5072393;28;20952;-65
2021/10/07 04:23:39;;;;;;;46.40;6.90;;;10.30;99.70;;;;;;5071946;28;21122;-64
2021/10/07 04:26:07;;;;;;;46.00;6.90;;;10.30;99.70;;;;;;5071477;28;20442;-65
2021/10/07 04:28:34;;;;;;;46.37;6.57;;;10.20;99.70;;;;;;5071987;28;20486;-65
2021/10/07 04:31:01;;;;;;;47.00;6.50;;;10.20;99.70;;;;;;5071941;28;20838;-66
2021/10/07 04:33:28;;;;;;;45.77;6.90;;;10.20;99.70;;;;;;5071988;28;20462;-65
2021/10/07 04:35:56;;;;;;;45.30;6.47;;;10.30;99.70;;;;;;5071835;28;20446;-66
2021/10/07 04:38:22;;;;;;;46.60;6.60;;;10.30;99.70;;;;;;5070256;28;20443;-66
2021/10/07 04:40:49;;;;;;;44.40;6.20;;;10.30;99.70;;;;;;5069294;28;20431;-65
2021/10/07 04:43:16;;;;;;;44.87;6.53;;;10.30;99.70;;;;;;5059889;28;20482;-66
2021/10/07 04:45:43;;;;;;;45.60;6.53;;;10.40;99.70;;;;;;5054800;28;20470;-65
2021/10/07 04:48:09;;;;;;;49.17;6.93;;;10.40;99.70;;;;;;5052321;28;20876;-66
2021/10/07 04:50:36;;;;;;;47.47;6.60;;;10.40;99.70;;;;;;5052068;28;20436;-65
2021/10/07 04:53:04;;;;;;;47.50;7.17;;;10.40;99.70;;;;;;5063002;28;20839;-67
2021/10/07 04:55:31;;;;;;;45.77;6.43;;;10.40;99.70;;;;;;5051768;28;20444;-66
2021/10/07 04:57:57;;;;;;;46.50;6.30;;;10.40;99.70;;;;;;5052031;28;20444;-67
2021/10/07 05:00:24;;;;;;;46.23;7.23;;;10.40;99.70;;;;;;5052697;28;20454;-66
2021/10/07 05:02:51;;;;;;;47.30;7.23;;;10.40;99.70;;;;;;5069403;28;20451;-66
2021/10/07 05:05:18;;;;;;;45.27;6.73;;;10.40;99.70;;;;;;5063236;28;20479;-67
2021/10/07 05:07:45;;;;;;;46.87;7.47;;;10.30;99.70;;;;;;5057717;28;20451;-66
2021/10/07 05:10:13;;;;;;;47.83;6.80;;;10.40;99.70;;;;;;5071981;28;20478;-66
2021/10/07 05:12:40;;;;;;;47.57;7.10;;;10.40;99.70;;;;;;5070097;28;20447;-67
2021/10/07 05:15:09;;;;;;;47.70;7.00;;;10.40;99.70;;;;;;5071881;28;21011;-68
2021/10/07 05:17:38;;;;;;;49.33;8.03;;;10.30;99.70;;;;;;5056777;28;20530;-66
2021/10/07 05:20:07;;;;;;;52.10;8.83;;;10.30;99.70;;;;;;5060516;28;20505;-67
2021/10/07 05:22:35;;;;;;;47.67;7.10;;;10.30;99.70;;;;;;5052519;28;20467;-67
2021/10/07 05:25:02;;;;;;;50.90;7.20;;;10.30;99.70;;;;;;5063593;28;20488;-67
2021/10/07 05:27:30;;;;;;;49.03;7.90;;;10.30;99.70;;;;;;5063280;28;20509;-66
2021/10/07 05:29:57;;;;;;;47.60;8.07;;;10.30;99.70;;;;;;5053059;28;20487;-65
2021/10/07 05:32:23;;;;;;;49.83;8.60;;;10.30;99.70;;;;;;5050057;28;20438;-66
2021/10/07 05:34:50;;;;;;;47.30;7.87;;;10.30;99.70;;;;;;5049458;28;20472;-65
2021/10/07 05:37:17;;;;;;;49.80;7.73;;;10.30;99.70;;;;;;5048675;28;20479;-64
2021/10/07 05:39:43;;;;;;;47.50;7.13;;;10.40;99.70;;;;;;5053112;28;20539;-66
2021/10/07 05:42:10;;;;;;;45.50;6.87;;;10.40;99.70;;;;;;5069278;28;20453;-66
2021/10/07 05:44:38;;;;;;;47.20;8.70;;;10.40;99.70;;;;;;5068650;28;20467;-65
2021/10/07 05:47:06;;;;;;;46.80;7.27;;;10.30;99.70;;;;;;5051321;28;20482;-65
2021/10/07 05:52:00;;;;;;;46.13;9.30;;;10.30;99.70;;;;;;5045764;28;20456;-68
2021/10/07 05:54:27;;;;;;;47.83;8.53;;;10.30;99.70;;;;;;5051146;28;20489;-67
2021/10/07 05:56:54;;;;;;;47.20;9.13;;;10.30;99.70;;;;;;5050742;28;20637;-67
2021/10/07 05:59:21;;;;;;;48.27;8.37;;;10.30;99.70;;;;;;5051190;28;21001;-67
2021/10/07 06:01:49;;;;;;;50.20;8.57;;;10.40;99.70;;;;;;5050946;28;20475;-67
2021/10/07 06:04:16;;;;;;;52.33;8.40;;;10.40;99.70;;;;;;5050910;28;20873;-67
2021/10/07 06:06:45;;;;;;;49.17;9.23;;;10.40;99.70;;;;;;5050520;28;20452;-67
2021/10/07 06:09:12;;;;;;;47.07;8.00;;;10.40;99.70;;;;;;5050682;28;20483;-68
2021/10/07 06:11:39;;;;;;;47.77;9.17;;;10.50;99.70;;;;;;5050653;28;20491;-68
2021/10/07 06:14:06;;;;;;;51.50;8.87;;;10.50;99.70;;;;;;5050582;28;20454;-67
2021/10/07 06:16:38;;;;;;;48.37;9.10;;;10.50;99.70;;;;;;5050474;28;20447;-67
2021/10/07 06:19:09;;;;;;;48.80;7.93;;;10.50;99.70;;;;;;5050256;28;21025;-67
2021/10/07 06:21:36;;;;;;;45.77;7.50;;;10.50;99.70;;;;;;5050627;28;20521;-68
2021/10/07 06:24:03;;;;;;;51.70;6.97;;;10.50;99.70;;;;;;5050513;28;20520;-67
2021/10/07 06:26:30;;;;;;;48.00;6.83;;;10.50;99.70;;;;;;5050299;28;20447;-67
2021/10/07 06:28:57;;;;;;;47.80;7.27;;;10.60;99.70;;;;;;5050213;28;20479;-67
2021/10/07 06:31:23;;;;;;;47.13;8.03;;;10.80;99.70;;;;;;5050361;28;20463;-67
2021/10/07 06:33:50;;;;;;;46.50;9.30;;;10.80;99.70;;;;;;5050227;28;20448;-68
2021/10/07 06:36:18;;;;;;;47.90;7.40;;;10.70;99.70;;;;;;5050237;28;20494;-68
2021/10/07 06:38:45;;;;;;;50.50;6.83;;;10.70;99.70;;;;;;5049480;28;20444;-67
2021/10/07 06:41:11;;;;;;;46.23;6.70;;;10.70;99.70;;;;;;5049498;28;20789;-67
2021/10/07 06:43:38;;;;;;;48.40;7.20;;;10.70;99.70;;;;;;5050206;28;20440;-68
2021/10/07 06:46:05;;;;;;;47.87;7.80;;;10.70;99.70;;;;;;5049742;28;20475;-68
2021/10/07 06:48:33;;;;;;;47.43;7.07;;;10.80;99.70;;;;;;5050194;28;20447;-68
2021/10/07 06:51:01;;;;;;;47.37;7.13;;;10.80;99.70;;;;;;5049784;28;20611;-67
2021/10/07 06:53:29;;;;;;;45.30;6.40;;;10.80;99.70;;;;;;5050238;28;20494;-68
2021/10/07 06:55:56;;;;;;;45.27;6.50;;;10.90;99.70;;;;;;5050018;28;20444;-68
2021/10/07 06:58:23;;;;;;;47.10;7.10;;;10.90;99.70;;;;;;5049730;28;20452;-67
2021/10/07 07:00:49;;;;;;;47.83;6.60;;;10.80;99.70;;;;;;5049736;28;20470;-67
2021/10/07 07:03:16;;;;;;;45.37;6.50;;;10.80;99.70;;;;;;5050203;28;20497;-68
2021/10/07 07:05:43;;;;;;;44.77;6.40;;;10.90;99.70;;;;;;5049736;28;20448;-67
2021/10/07 07:08:09;;;;;;;45.30;6.83;;;10.90;99.70;;;;;;5049617;28;20454;-67
2021/10/07 07:10:37;;;;;;;45.70;5.97;;;11.00;99.70;;;;;;5049541;28;21052;-68
2021/10/07 07:13:06;;;;;;;45.40;6.00;;;10.90;99.70;;;;;;5049879;28;20497;-67
2021/10/07 07:15:33;;;;;;;49.53;6.47;;;11.00;99.70;;;;;;5049826;28;20531;-67
2021/10/07 07:18:00;;;;;;;46.97;7.03;;;11.10;99.70;;;;;;5048017;28;20451;-67
2021/10/07 07:20:27;;;;;;;44.53;6.83;;;11.10;99.70;;;;;;5049586;28;20471;-67
2021/10/07 07:22:54;;;;;;;46.50;6.40;;;11.10;99.70;;;;;;5049546;28;20452;-67
2021/10/07 07:25:20;;;;;;;47.40;5.70;;;11.20;99.70;;;;;;5049715;28;20597;-68
2021/10/07 07:27:48;;;;;;;44.07;5.93;;;11.20;99.70;;;;;;5049181;28;20467;-67
2021/10/07 07:30:15;;;;;;;48.23;6.07;;;11.30;99.70;;;;;;5049665;28;21001;-67
2021/10/07 07:32:42;;;;;;;45.80;6.07;;;11.30;99.70;;;;;;5049550;28;20447;-67
2021/10/07 07:35:10;;;;;;;46.93;6.23;;;11.30;99.70;;;;;;5049500;28;20825;-67
2021/10/07 07:37:37;;;;;;;44.80;6.03;;;11.30;99.70;;;;;;5048710;28;20456;-67
2021/10/07 07:40:07;;;;;;;50.23;5.97;;;11.40;99.70;;;;;;5049338;28;20494;-68
2021/10/07 07:42:33;;;;;;;48.40;6.93;;;11.50;99.70;;;;;;5049655;28;20894;-67
2021/10/07 07:45:03;;;;;;;48.30;7.07;;;11.60;99.70;;;;;;5049641;28;20546;-67
2021/10/07 07:47:29;;;;;;;49.90;6.53;;;11.60;99.70;;;;;;5049252;28;20680;-67
2021/10/07 07:49:56;;;;;;;48.67;7.20;;;11.70;99.70;;;;;;5049130;28;20483;-67
2021/10/07 07:52:23;;;;;;;48.17;6.93;;;11.60;99.70;;;;;;5050466;28;20450;-67
2021/10/07 07:54:50;;;;;;;49.30;7.63;;;11.80;99.70;;;;;;5053275;28;20497;-67
2021/10/07 07:57:16;;;;;;;50.83;8.27;;;11.80;99.70;;;;;;5053192;28;20497;-67
2021/10/07 07:59:43;;;;;;;49.13;8.13;;;11.80;99.70;;;;;;5052999;28;20478;-67
2021/10/07 08:02:15;;;;;;;49.10;7.40;;;11.80;99.70;;;;;;5053468;28;20459;-67
2021/10/07 08:04:42;;;;;;;57.67;8.97;;;11.80;99.70;;;;;;5053130;28;20450;-67
2021/10/07 08:07:09;;;;;;;51.80;8.33;;;11.90;99.70;;;;;;5052971;28;20447;-67
2021/10/07 08:09:38;;;;;;;50.70;7.87;;;12.00;99.70;;;;;;5052848;28;20484;-67
2021/10/07 08:12:06;;;;;;;46.80;6.80;;;12.00;99.70;;;;;;5053149;28;20444;-68
2021/10/07 08:14:32;;;;;;;51.63;8.07;;;12.00;99.70;;;;;;5052993;28;20444;-67
2021/10/07 08:17:01;;;;;;;49.03;7.70;;;12.10;99.70;;;;;;5052980;28;20447;-67
2021/10/07 08:19:29;;;;;;;51.23;8.43;;;12.20;99.70;;;;;;5053072;28;20451;-67
2021/10/07 08:21:55;;;;;;;50.10;7.87;;;12.10;99.70;;;;;;5053274;28;20455;-67
2021/10/07 08:24:23;;;;;;;49.33;7.93;;;12.00;99.70;;;;;;5053078;28;20450;-67
2021/10/07 08:26:50;;;;;;;51.33;8.03;;;12.10;99.70;;;;;;5052948;28;20785;-68
2021/10/07 08:29:17;;;;;;;51.77;8.40;;;12.30;99.70;;;;;;5052638;28;21016;-67
2021/10/07 08:31:43;;;;;;;48.80;7.93;;;12.40;99.70;;;;;;5052590;28;20470;-67
2021/10/07 08:34:10;;;;;;;49.53;7.60;;;12.40;99.70;;;;;;5052802;28;20451;-68
2021/10/07 08:36:42;;;;;;;49.70;8.13;;;12.50;99.70;;;;;;5052541;28;20658;-68
2021/10/07 08:39:09;;;;;;;51.30;7.90;;;12.50;99.70;;;;;;5049662;28;20494;-68
2021/10/07 08:41:36;;;;;;;54.33;8.30;;;12.60;99.70;;;;;;5052532;28;20459;-67
2021/10/07 08:44:03;;;;;;;57.10;9.97;;;12.50;99.70;;;;;;5052447;28;20450;-67
2021/10/07 08:46:30;;;;;;;53.80;9.50;;;12.50;99.70;;;;;;5050725;28;20455;-68
2021/10/07 08:48:59;;;;;;;51.63;9.27;;;12.50;99.70;;;;;;5049719;28;20467;-68
2021/10/07 08:51:26;;;;;;;57.00;9.93;;;12.40;99.70;;;;;;5052152;28;20505;-67
2021/10/07 08:53:54;;;;;;;55.53;10.63;;;12.40;99.70;;;;;;5050252;28;20448;-67
2021/10/07 08:56:21;;;;;;;54.53;10.17;;;12.20;99.70;;;;;;5051927;28;20954;-68
2021/10/07 08:58:47;;;;;;;55.43;10.33;;;12.20;99.70;;;;;;5052201;28;20883;-67
2021/10/07 09:01:36;;;;;;;56.13;10.93;;;12.10;99.70;;;;;;5052034;28;20467;-68
2021/10/07 09:04:17;;;;;;;53.47;10.20;;;12.20;99.70;;;;;;5051428;28;20522;-68
2021/10/07 09:06:46;;;;;;;56.80;11.07;;;12.20;99.70;;;;;;5051841;28;21042;-67
2021/10/07 09:09:14;;;;;;;55.27;11.20;;;12.20;99.70;;;;;;5052048;28;20603;-67
2021/10/07 09:11:41;;;;;;;57.40;11.13;;;12.20;99.70;;;;;;5051838;28;20922;-68
2021/10/07 09:14:10;;;;;;;56.33;11.13;;;12.20;99.70;;;;;;5052052;28;20814;-67
2021/10/07 09:16:44;;;;;;;57.10;11.33;;;12.20;99.70;;;;;;5051684;28;20448;-67
2021/10/07 09:19:18;;;;;;;59.00;11.40;;;12.40;99.70;;;;;;5051565;28;20451;-68
2021/10/07 09:21:46;;;;;;;53.80;9.73;;;12.50;99.70;;;;;;5051744;28;20471;-67
2021/10/07 09:24:34;;;;;;;55.40;10.60;;;12.50;99.70;;;;;;5051576;28;20455;-67
2021/10/07 09:27:03;;;;;;;55.43;11.13;;;12.50;99.70;;;;;;5051525;28;20497;-67
2021/10/07 09:29:40;;;;;;;56.50;10.77;;;12.50;99.70;;;;;;5051468;28;20463;-67
2021/10/07 09:32:08;;;;;;;60.93;12.50;;;12.30;99.70;;;;;;5051598;28;20451;-67
2021/10/07 09:34:44;;;;;;;55.63;11.43;;;12.20;99.70;;;;;;5051372;28;20455;-68
2021/10/07 09:37:28;;;;;;;58.27;11.30;;;12.30;99.70;;;;;;5051376;28;20586;-67
2021/10/07 09:39:59;;;;;;;58.30;12.40;;;12.10;99.70;;;;;;5051238;28;20474;-68
2021/10/07 09:42:28;;;;;;;53.77;10.57;;;12.10;99.70;;;;;;5051467;28;20448;-68
2021/10/07 09:45:07;;;;;;;57.50;11.53;;;12.20;99.70;;;;;;5051057;28;20867;-68
2021/10/07 09:47:36;;;;;;;59.50;11.97;;;12.30;99.70;;;;;;5051144;28;20937;-67
2021/10/07 09:50:27;;;;;;;55.50;10.97;;;12.40;99.70;;;;;;5050535;28;20498;-67
2021/10/07 09:52:59;;;;;;;56.97;10.53;;;12.50;99.70;;;;;;5036452;28;20467;-67
2021/10/07 09:55:31;;;;;;;57.30;11.90;;;12.40;99.70;;;;;;5050879;28;20471;-67
2021/10/07 09:58:01;;;;;;;60.27;11.83;;;12.40;99.70;;;;;;5051148;28;20505;-68
2021/10/07 10:00:30;;;;;;;57.33;11.17;;;12.40;99.70;;;;;;5050702;28;20459;-68
2021/10/07 10:02:59;;;;;;;54.93;10.70;;;12.50;99.70;;;;;;5051282;28;20440;-67
2021/10/07 10:05:27;;;;;;;60.53;12.13;;;12.70;99.70;;;;;;5050705;28;20505;-67
2021/10/07 10:07:54;;;;;;;55.53;11.07;;;12.70;99.70;;;;;;5050701;28;21013;-67
2021/10/07 10:10:21;;;;;;;53.87;10.50;;;12.80;99.70;;;;;;5050849;28;20484;-67
2021/10/07 10:12:49;;;;;;;53.83;10.10;;;12.90;99.70;;;;;;5050604;28;20886;-67
2021/10/07 10:15:17;;;;;;;54.40;10.30;;;13.10;99.70;;;;;;5049943;28;20447;-67
2021/10/07 10:17:45;;;;;;;52.07;9.30;;;13.30;99.70;;;;;;5050492;28;20873;-68
2021/10/07 10:20:17;;;;;;;115.07;30.27;;;13.30;99.70;;;;;;5050779;28;20993;-67
2021/10/07 10:22:50;;;;;;;51.17;8.90;;;13.30;99.70;;;;;;5050843;28;20538;-67
2021/10/07 10:25:16;;;;;;;49.60;9.23;;;13.30;99.70;;;;;;5050837;28;20530;-67
2021/10/07 10:27:57;;;;;;;51.07;8.60;;;13.30;99.70;;;;;;5050201;28;21080;-68
2021/10/07 10:30:28;;;;;;;50.93;9.10;;;13.30;99.70;;;;;;5050342;28;20487;-68
2021/10/07 10:32:56;;;;;;;50.77;8.90;;;13.30;99.70;;;;;;5050509;28;20440;-67
2021/10/07 10:35:35;;;;;;;53.60;8.97;;;13.20;99.70;;;;;;5050459;28;20451;-68
2021/10/07 10:38:03;;;;;;;52.43;9.50;;;13.30;99.70;;;;;;5049365;28;20443;-68
2021/10/07 10:40:30;;;;;;;53.90;10.03;;;13.20;99.70;;;;;;5050272;28;20459;-68
2021/10/07 10:43:30;;;;;;;51.77;9.00;;;13.20;99.70;;;;;;5050276;28;20809;-67
2021/10/07 10:46:14;;;;;;;49.87;8.63;;;13.20;99.70;;;;;;5050396;28;20961;-67
2021/10/07 10:49:00;;;;;;;51.50;8.60;;;13.10;99.70;;;;;;5049866;28;20482;-67
2021/10/07 10:51:32;;;;;;;51.73;9.00;;;13.30;99.70;;;;;;5049984;28;20498;-67
2021/10/07 10:54:00;;;;;;;52.07;9.40;;;13.10;99.70;;;;;;5049169;28;20479;-68
2021/10/07 10:56:30;;;;;;;53.50;8.93;;;13.30;99.70;;;;;;5049964;28;20444;-67
2021/10/07 10:59:23;;;;;;;50.97;8.70;;;13.30;99.70;;;;;;5050179;28;20436;-68
2021/10/07 11:02:27;;;;;;;50.30;8.17;;;13.30;99.70;;;;;;5049933;28;20446;-67
2021/10/07 11:04:56;;;;;;;49.23;8.53;;;13.30;99.70;;;;;;5049738;28;20453;-67
2021/10/07 11:07:27;;;;;;;51.30;9.03;;;13.10;99.70;;;;;;5049612;28;20486;-67
2021/10/07 11:10:05;;;;;;;51.50;9.80;;;13.10;99.70;;;;;;5049568;28;20467;-67
2021/10/07 11:12:42;;;;;;;52.00;8.50;;;13.00;99.70;;;;;;5049872;28;20534;-67
2021/10/07 11:15:11;;;;;;;51.00;8.27;;;13.10;99.70;;;;;;5049805;28;20753;-68
2021/10/07 11:17:40;;;;;;;51.77;8.87;;;13.10;99.70;;;;;;5049359;28;20431;-68
2021/10/07 11:20:08;;;;;;;51.63;8.90;;;13.30;99.70;;;;;;5049381;28;20852;-67
2021/10/07 11:22:35;;;;;;;53.50;8.80;;;13.30;99.70;;;;;;5049758;28;20501;-68
2021/10/07 11:25:02;;;;;;;48.40;7.77;;;13.40;99.70;;;;;;5049577;28;20436;-68
2021/10/07 11:27:40;;;;;;;50.07;8.63;;;13.40;99.70;;;;;;5048913;28;20443;-67
2021/10/07 11:30:11;;;;;;;51.60;8.53;;;13.50;99.70;;;;;;5049561;28;20819;-68
2021/10/07 11:32:40;;;;;;;53.03;9.10;;;13.60;99.70;;;;;;5049788;28;20440;-67
2021/10/07 11:35:09;;;;;;;49.53;8.40;;;13.70;99.70;;;;;;5049665;28;20451;-67
2021/10/07 11:37:58;;;;;;;48.93;8.60;;;13.80;99.70;;;;;;5048421;28;20454;-67
2021/10/07 11:40:28;;;;;;;49.57;8.30;;;13.80;99.70;;;;;;5049605;28;20469;-67
2021/10/07 11:42:56;;;;;;;49.70;8.27;;;13.90;99.70;;;;;;5049326;28;20459;-67
2021/10/07 11:45:26;;;;;;;49.30;8.57;;;13.90;99.70;;;;;;5049692;28;20475;-68
2021/10/07 11:47:54;;;;;;;50.60;8.57;;;13.90;99.70;;;;;;5049157;28;20451;-67
2021/10/07 11:50:24;;;;;;;48.73;8.10;;;14.00;99.70;;;;;;5049279;28;20482;-67
2021/10/07 11:52:52;;;;;;;48.87;8.37;;;13.90;99.70;;;;;;5040774;23;20497;-67
2021/10/07 11:55:23;;;;;;;47.77;7.90;;;13.80;99.70;;;;;;5028968;28;20448;-67
2021/10/07 11:57:52;;;;;;;48.70;8.10;;;13.80;99.70;;;;;;5029091;28;20444;-67
2021/10/07 12:00:48;;;;;;;51.83;8.63;;;13.70;99.70;;;;;;5029582;28;20440;-67
2021/10/07 12:03:20;;;;;;;50.20;7.80;;;13.80;99.70;;;;;;5029140;28;20480;-68
2021/10/07 12:05:50;;;;;;;49.07;8.13;;;13.90;99.70;;;;;;5029414;28;20466;-68
2021/10/07 12:08:17;;;;;;;46.97;7.90;;;13.90;99.70;;;;;;5028829;28;20465;-68
2021/10/07 12:10:47;;;;;;;46.53;7.10;;;14.00;99.70;;;;;;5029484;28;20512;-68
2021/10/07 12:13:16;;;;;;;45.97;7.10;;;13.90;99.70;;;;;;5029185;28;20461;-67
2021/10/07 12:15:47;;;;;;;44.20;5.90;;;13.90;99.70;;;;;;5029575;28;20512;-68
2021/10/07 12:18:15;;;;;;;44.93;6.33;;;13.90;99.70;;;;;;5029214;28;20452;-67
2021/10/07 12:20:59;;;;;;;46.67;6.33;;;14.10;99.70;;;;;;5029128;28;20498;-68
2021/10/07 12:23:26;;;;;;;44.77;5.70;;;14.00;99.70;;;;;;5029439;28;20533;-67
2021/10/07 12:25:56;;;;;;;44.30;6.23;;;14.10;99.70;;;;;;5029178;28;20444;-68
2021/10/07 12:28:23;;;;;;;43.93;5.37;;;14.20;99.70;;;;;;5029082;28;20865;-67
2021/10/07 12:30:55;;;;;;;45.23;5.70;;;14.10;99.70;;;;;;5029230;28;20507;-67
2021/10/07 12:33:21;;;;;;;45.80;5.50;;;14.20;99.70;;;;;;5029334;28;20473;-67
2021/10/07 12:36:01;;;;;;;45.70;5.37;;;14.10;99.70;;;;;;5029100;28;20444;-67
2021/10/07 12:38:28;;;;;;;45.00;5.60;;;14.10;99.70;;;;;;5028611;28;20440;-67
2021/10/07 12:41:00;;;;;;;45.07;5.63;;;14.30;99.70;;;;;;5032538;28;20495;-67
2021/10/07 12:43:27;;;;;;;42.30;5.50;;;14.40;99.70;;;;;;5032639;28;20471;-67
2021/10/07 12:46:05;;;;;;;43.23;5.30;;;14.30;99.70;;;;;;5032520;28;20452;-67
2021/10/07 12:48:46;;;;;;;44.50;6.00;;;14.30;99.70;;;;;;5026840;28;20449;-67
2021/10/07 12:51:13;;;;;;;45.30;6.50;;;14.20;99.70;;;;;;5012485;28;20492;-67
2021/10/07 12:53:42;;;;;;;42.10;5.93;;;14.30;99.70;;;;;;5012206;28;20477;-67
2021/10/07 12:56:10;;;;;;;43.47;6.33;;;14.20;99.70;;;;;;5012357;28;20477;-68
2021/10/07 12:58:52;;;;;;;42.80;6.00;;;14.10;99.70;;;;;;5012716;28;20537;-67
2021/10/07 13:01:24;;;;;;;44.30;6.00;;;14.00;99.70;;;;;;5012841;28;20452;-67
2021/10/07 13:04:10;;;;;;;44.60;5.83;;;14.00;99.70;;;;;;5012083;28;21007;-67
2021/10/07 13:06:37;;;;;;;43.60;6.23;;;14.00;99.70;;;;;;5012267;28;20444;-67
2021/10/07 13:09:04;;;;;;;44.80;6.27;;;14.10;99.70;;;;;;5012425;28;20499;-67
2021/10/07 13:11:31;;;;;;;44.73;6.33;;;14.10;99.70;;;;;;5012261;28;20486;-67
2021/10/07 13:13:58;;;;;;;43.93;5.63;;;14.10;99.70;;;;;;5012081;28;20460;-67
2021/10/07 13:16:27;;;;;;;44.50;6.40;;;14.00;99.70;;;;;;5012144;28;20445;-67
2021/10/07 13:18:54;;;;;;;47.80;6.30;;;14.00;99.70;;;;;;5012082;28;20532;-68
2021/10/07 13:21:21;;;;;;;46.63;6.73;;;14.00;99.70;;;;;;5012226;28;20465;-67
2021/10/07 13:23:50;;;;;;;44.13;5.80;;;14.00;99.70;;;;;;5012017;28;20835;-68
2021/10/07 13:26:17;;;;;;;45.60;6.20;;;13.90;99.70;;;;;;5012102;28;20507;-67
2021/10/07 13:28:44;;;;;;;45.10;5.40;;;13.90;99.70;;;;;;5011927;28;20457;-67
2021/10/07 13:31:11;;;;;;;44.07;5.90;;;13.90;99.70;;;;;;5012049;28;20481;-67
2021/10/07 13:33:39;;;;;;;45.27;5.47;;;13.90;99.70;;;;;;5011857;28;20465;-67
2021/10/07 13:36:06;;;;;;;46.37;6.33;;;13.80;99.70;;;;;;5011385;28;20952;-68
2021/10/07 13:38:33;;;;;;;44.53;6.00;;;13.90;99.70;;;;;;5011228;28;20452;-67
2021/10/07 13:41:01;;;;;;;44.47;5.70;;;13.90;99.70;;;;;;5011797;28;20441;-67
2021/10/07 13:43:29;;;;;;;44.77;5.90;;;13.90;99.70;;;;;;5011693;28;20477;-68
2021/10/07 13:45:56;;;;;;;43.90;5.73;;;14.00;99.70;;;;;;5011620;28;20453;-67
2021/10/07 13:48:23;;;;;;;43.50;5.83;;;14.00;99.70;;;;;;5015595;28;20452;-67
2021/10/07 13:50:51;;;;;;;43.60;5.47;;;14.10;99.70;;;;;;5030930;28;20506;-67
2021/10/07 13:53:18;;;;;;;44.20;5.60;;;14.20;99.70;;;;;;5030784;28;20475;-67
2021/10/07 13:55:45;;;;;;;47.30;5.97;;;14.20;99.70;;;;;;5031091;28;20460;-67
2021/10/07 13:58:12;;;;;;;43.23;4.97;;;14.20;99.70;;;;;;5031027;28;20437;-67
2021/10/07 14:00:40;;;;;;;43.50;6.10;;;14.10;99.70;;;;;;5030996;28;20824;-67
2021/10/07 14:03:08;;;;;;;44.03;6.00;;;14.10;99.70;;;;;;5030927;28;20452;-67
2021/10/07 14:05:35;;;;;;;46.20;5.47;;;14.20;99.70;;;;;;5022684;28;20805;-67
2021/10/07 14:08:05;;;;;;;43.23;5.13;;;14.20;99.70;;;;;;5030382;28;20566;-67
2021/10/07 14:10:32;;;;;;;44.77;5.70;;;14.20;99.70;;;;;;5048849;28;20518;-67
2021/10/07 14:12:59;;;;;;;44.50;6.23;;;14.20;99.70;;;;;;5048723;28;20570;-67
2021/10/07 14:15:27;;;;;;;43.90;6.30;;;14.20;99.70;;;;;;5039175;28;20469;-67
2021/10/07 14:17:54;;;;;;;42.43;4.90;;;14.20;99.70;;;;;;5026868;28;20464;-67
2021/10/07 14:20:21;;;;;;;43.57;5.50;;;14.10;99.70;;;;;;5023835;28;20448;-68
2021/10/07 14:22:47;;;;;;;43.27;5.27;;;14.00;99.70;;;;;;5011897;28;20469;-67
2021/10/07 14:25:15;;;;;;;44.70;4.80;;;13.90;99.70;;;;;;5016655;28;20445;-68
2021/10/07 14:27:42;;;;;;;42.43;5.40;;;13.80;99.70;;;;;;5023163;28;20448;-67
2021/10/07 14:30:11;;;;;;;43.30;5.83;;;13.80;99.70;;;;;;5050083;28;20898;-67
2021/10/07 14:32:38;;;;;;;43.53;5.47;;;13.80;99.70;;;;;;5042973;28;20484;-67
2021/10/07 14:35:06;;;;;;;43.30;5.47;;;13.80;99.70;;;;;;5030266;28;20448;-67
2021/10/07 14:37:32;;;;;;;43.43;5.40;;;13.90;99.70;;;;;;5029109;28;20445;-67
2021/10/07 14:39:59;;;;;;;43.60;4.80;;;14.00;99.70;;;;;;5010536;28;20826;-67
2021/10/07 14:42:27;;;;;;;44.87;4.90;;;14.00;99.70;;;;;;5012087;28;20461;-67
2021/10/07 14:44:54;;;;;;;44.53;5.17;;;14.10;99.70;;;;;;5028622;28;20455;-67
2021/10/07 14:47:21;;;;;;;44.07;4.93;;;14.20;99.70;;;;;;5027855;28;20457;-67
2021/10/07 14:49:47;;;;;;;42.40;4.63;;;14.20;99.70;;;;;;5018232;28;20453;-67
2021/10/07 14:52:14;;;;;;;42.80;5.03;;;14.20;99.70;;;;;;5010216;28;20501;-67
2021/10/07 14:54:41;;;;;;;44.03;4.67;;;14.10;99.70;;;;;;5010406;28;20831;-67
2021/10/07 14:57:07;;;;;;;43.17;5.70;;;14.00;99.70;;;;;;5010161;28;20445;-67
2021/10/07 14:59:36;;;;;;;43.57;5.63;;;14.10;99.70;;;;;;5011458;28;20453;-67
2021/10/07 15:02:02;;;;;;;41.87;4.97;;;14.00;99.70;;;;;;5010395;28;20815;-67
2021/10/07 15:04:29;;;;;;;41.83;4.93;;;13.90;99.70;;;;;;5029833;28;20535;-66
2021/10/07 15:06:56;;;;;;;44.70;5.40;;;14.00;99.70;;;;;;5027519;28;20449;-67
2021/10/07 15:09:23;;;;;;;42.73;4.20;;;14.00;99.70;;;;;;5029726;28;20917;-67
2021/10/07 15:11:50;;;;;;;43.27;5.60;;;14.00;99.70;;;;;;5029047;28;20477;-68
2021/10/07 15:14:16;;;;;;;42.63;4.40;;;14.00;99.70;;;;;;5029795;28;20453;-67
2021/10/07 15:16:44;;;;;;;44.40;5.57;;;13.90;99.70;;;;;;5019550;28;20469;-67
2021/10/07 15:19:11;;;;;;;44.70;5.30;;;13.90;99.70;;;;;;5009393;28;20445;-67
2021/10/07 15:21:40;;;;;;;43.40;4.87;;;13.80;99.70;;;;;;5017431;28;20586;-67
2021/10/07 15:24:07;;;;;;;42.33;4.63;;;13.80;99.70;;;;;;5010948;28;20446;-67
2021/10/07 15:26:34;;;;;;;42.50;5.10;;;13.80;99.70;;;;;;5017239;28;20441;-67
2021/10/07 15:29:01;;;;;;;43.50;5.77;;;13.80;99.70;;;;;;5029392;28;20494;-67
2021/10/07 15:31:28;;;;;;;44.00;5.10;;;13.80;99.70;;;;;;5027636;28;20445;-66
2021/10/07 15:33:56;;;;;;;45.43;5.53;;;13.80;99.70;;;;;;5029620;28;20990;-67
2021/10/07 15:36:23;;;;;;;44.67;5.57;;;13.80;99.70;;;;;;5017460;28;20453;-67
2021/10/07 15:38:50;;;;;;;42.47;5.20;;;13.80;99.70;;;;;;5040667;28;20639;-67
2021/10/07 15:41:17;;;;;;;43.90;5.67;;;13.80;99.70;;;;;;5044170;28;20444;-67
2021/10/07 15:43:44;;;;;;;44.70;5.23;;;13.80;99.70;;;;;;5024478;28;20457;-67
2021/10/07 15:46:15;;;;;;;42.57;5.03;;;13.70;99.70;;;;;;5008706;28;20453;-66
2021/10/07 15:48:42;;;;;;;44.00;4.93;;;13.70;99.70;;;;;;5009397;28;20886;-66
2021/10/07 15:51:12;;;;;;;42.90;4.90;;;13.60;99.70;;;;;;5019545;28;20451;-67
2021/10/07 15:53:39;;;;;;;43.77;5.20;;;13.60;99.70;;;;;;5029622;28;21047;-67
2021/10/07 15:56:06;;;;;;;42.50;4.90;;;13.60;99.70;;;;;;5028828;28;20440;-67
2021/10/07 15:58:33;;;;;;;45.00;4.93;;;13.60;99.70;;;;;;5027858;28;20447;-68
2021/10/07 16:01:00;;;;;;;42.27;4.83;;;13.60;99.70;;;;;;5025780;28;20450;-67
2021/10/07 16:03:27;;;;;;;43.30;4.77;;;13.60;99.70;;;;;;5013973;28;20464;-67
2021/10/07 16:05:57;;;;;;;43.60;5.00;;;13.50;99.70;;;;;;5024721;28;20446;-68
2021/10/07 16:08:26;;;;;;;42.87;5.50;;;13.50;99.70;;;;;;5029083;28;20478;-67
2021/10/07 16:10:54;;;;;;;42.83;5.13;;;13.50;99.70;;;;;;5049224;28;20460;-67
2021/10/07 16:13:22;;;;;;;44.77;4.80;;;13.50;99.70;;;;;;5021440;28;20485;-67
2021/10/07 16:15:48;;;;;;;44.53;5.30;;;13.50;99.70;;;;;;5014329;28;20540;-67
2021/10/07 16:18:15;;;;;;;45.27;5.07;;;13.40;99.70;;;;;;5028047;28;20970;-67
2021/10/07 16:20:43;;;;;;;44.23;4.90;;;13.30;99.70;;;;;;5031174;28;20452;-67
2021/10/07 16:23:11;;;;;;;42.40;4.77;;;13.40;99.70;;;;;;5032750;28;20456;-69
2021/10/07 16:25:40;;;;;;;42.87;4.93;;;13.40;99.70;;;;;;5032852;28;20849;-67
2021/10/07 16:28:06;;;;;;;43.13;4.70;;;13.40;99.70;;;;;;5032285;28;20444;-67
2021/10/07 16:30:33;;;;;;;42.63;4.90;;;13.40;99.70;;;;;;5031551;28;20445;-67
2021/10/07 16:33:02;;;;;;;42.60;4.90;;;13.40;99.70;;;;;;5031828;28;20717;-68
2021/10/07 16:35:29;;;;;;;42.03;4.57;;;13.30;99.70;;;;;;5032082;28;20444;-67
2021/10/07 16:37:56;;;;;;;43.43;5.13;;;13.20;99.70;;;;;;5030769;28;20440;-67
2021/10/07 16:40:23;;;;;;;43.63;5.10;;;13.20;99.70;;;;;;5032801;28;20794;-67
2021/10/07 16:42:51;;;;;;;43.40;5.07;;;13.20;99.70;;;;;;5034498;28;20453;-69
2021/10/07 16:45:18;;;;;;;42.53;4.90;;;13.20;99.70;;;;;;5033541;28;20506;-67
2021/10/07 16:47:45;;;;;;;43.37;4.90;;;13.20;99.70;;;;;;5047020;28;20490;-68